Time;durP1;ratioP1;P1;durP2;ratioP2;P2;SDS_P1;SDS_P2;PMS_P1;PMS_P2;Temp;Humidity;BMP_temperature;BMP_pressure;BME280_temperature;BME280_humidity;BME280_pressure;Samples;Min_cycle;Max_cycle;Signal;HPM_P1;HPM_P2
2021/05/17 00:00:17;;;;;;;1.15;0.70;;;10.90;31.90;;;;;;5077656;28;20059;-63
2021/05/17 00:03:08;;;;;;;2.38;0.98;;;10.90;31.70;;;;;;5066517;28;20043;-62
2021/05/17 00:05:57;;;;;;;3.65;0.60;;;10.90;30.70;;;;;;5077980;28;20047;-63
2021/05/17 00:08:46;;;;;;;1.27;0.80;;;10.90;30.20;;;;;;5080728;28;20071;-63
2021/05/17 00:11:37;;;;;;;2.25;0.80;;;10.90;31.20;;;;;;5079947;28;20105;-63
2021/05/17 00:14:29;;;;;;;2.63;0.60;;;11.00;33.60;;;;;;5081624;28;20040;-62
2021/05/17 00:17:17;;;;;;;3.83;0.80;;;11.00;33.00;;;;;;5082860;28;20040;-63
2021/05/17 00:20:07;;;;;;;3.05;1.05;;;11.10;31.80;;;;;;5074887;28;20076;-63
2021/05/17 00:22:55;;;;;;;2.35;0.82;;;11.10;31.70;;;;;;5083430;28;20044;-63
2021/05/17 00:25:44;;;;;;;0.77;0.40;;;11.10;29.70;;;;;;5064577;28;20130;-62
2021/05/17 00:28:40;;;;;;;1.13;0.60;;;11.10;28.40;;;;;;5064916;28;20259;-63
2021/05/17 00:31:32;;;;;;;1.25;0.60;;;11.00;29.10;;;;;;5074755;28;20221;-63
2021/05/17 00:34:21;;;;;;;3.00;1.05;;;10.90;32.50;;;;;;5082274;28;20044;-63
2021/05/17 00:37:10;;;;;;;3.67;0.80;;;10.90;33.50;;;;;;5048484;28;20063;-63
2021/05/17 00:39:58;;;;;;;1.13;0.70;;;10.80;30.60;;;;;;5075891;28;20055;-63
2021/05/17 00:42:47;;;;;;;2.45;0.80;;;10.90;29.30;;;;;;5082219;28;20653;-63
2021/05/17 00:45:35;;;;;;;2.08;1.00;;;11.00;28.20;;;;;;5080780;28;20052;-63
2021/05/17 00:48:29;;;;;;;1.55;0.70;;;11.00;29.50;;;;;;5063857;28;20045;-62
2021/05/17 00:51:18;;;;;;;1.23;0.55;;;11.00;28.50;;;;;;5067579;28;20056;-62
2021/05/17 00:54:07;;;;;;;1.55;0.75;;;10.90;29.50;;;;;;5061297;28;20064;-62
2021/05/17 00:56:56;;;;;;;2.15;0.68;;;10.90;29.50;;;;;;5066105;28;20052;-63
2021/05/17 00:59:45;;;;;;;1.90;0.90;;;10.80;29.40;;;;;;5072910;28;20256;-63
2021/05/17 01:02:33;;;;;;;1.45;0.50;;;10.70;31.10;;;;;;5067374;28;20495;-63
2021/05/17 01:05:34;;;;;;;2.90;0.85;;;10.70;29.40;;;;;;5078969;28;20037;-63
2021/05/17 01:08:26;;;;;;;2.08;0.70;;;10.70;28.80;;;;;;5078660;28;20879;-62
2021/05/17 01:11:19;;;;;;;1.90;1.00;;;10.70;29.40;;;;;;5056465;28;20062;-63
2021/05/17 01:14:09;;;;;;;3.75;0.90;;;10.70;29.10;;;;;;5076670;28;20048;-62
2021/05/17 01:17:01;;;;;;;1.40;0.80;;;10.70;29.40;;;;;;5062064;28;20099;-63
2021/05/17 01:20:04;;;;;;;1.90;0.65;;;10.70;29.00;;;;;;5073565;28;20054;-62
2021/05/17 01:23:29;;;;;;;2.95;0.70;;;10.70;28.90;;;;;;5067590;28;20051;-63
2021/05/17 01:26:22;;;;;;;2.22;0.82;;;10.70;28.70;;;;;;5073240;28;20049;-63
2021/05/17 01:29:10;;;;;;;2.97;1.02;;;10.70;29.10;;;;;;5073302;28;20059;-63
2021/05/17 01:32:00;;;;;;;1.55;0.68;;;10.70;27.30;;;;;;5081248;28;20084;-63
2021/05/17 01:34:50;;;;;;;4.70;0.85;;;10.70;27.50;;;;;;5062017;28;20063;-63
2021/05/17 01:37:39;;;;;;;2.35;0.65;;;10.70;27.40;;;;;;5074300;28;20058;-63
2021/05/17 01:40:31;;;;;;;2.78;0.70;;;10.80;26.70;;;;;;5075909;28;20044;-63
2021/05/17 01:43:22;;;;;;;2.33;0.60;;;10.60;26.80;;;;;;5078023;28;20400;-63
2021/05/17 01:46:14;;;;;;;3.95;0.73;;;10.70;27.40;;;;;;5057926;28;20129;-62
2021/05/17 01:49:03;;;;;;;4.25;0.80;;;10.70;28.30;;;;;;5067294;28;20504;-63
2021/05/17 01:51:54;;;;;;;2.10;0.68;;;10.60;27.40;;;;;;5077157;28;20047;-62
2021/05/17 01:54:48;;;;;;;0.75;0.50;;;10.60;27.20;;;;;;5060780;28;20598;-62
2021/05/17 01:57:38;;;;;;;2.58;0.68;;;10.60;27.30;;;;;;5076887;28;20048;-62
2021/05/17 02:00:31;;;;;;;2.55;0.88;;;10.60;27.50;;;;;;5060504;28;20056;-62
2021/05/17 02:03:19;;;;;;;1.90;0.70;;;10.60;27.30;;;;;;5045357;28;20090;-61
2021/05/17 02:06:12;;;;;;;4.93;0.80;;;10.70;26.00;;;;;;5077340;28;20048;-63
2021/05/17 02:09:00;;;;;;;3.00;0.68;;;10.70;24.60;;;;;;5058645;28;20101;-62
2021/05/17 02:11:49;;;;;;;3.20;0.70;;;10.70;24.00;;;;;;5073195;28;20385;-63
2021/05/17 02:14:57;;;;;;;2.70;0.50;;;10.80;23.90;;;;;;5066386;28;20036;-62
2021/05/17 02:18:01;;;;;;;1.13;0.47;;;10.70;24.20;;;;;;5058731;28;20507;-63
2021/05/17 02:20:50;;;;;;;1.92;0.60;;;10.60;23.90;;;;;;5076192;28;20048;-63
2021/05/17 02:23:40;;;;;;;2.30;0.80;;;10.70;24.00;;;;;;5067433;28;20041;-63
2021/05/17 02:26:29;;;;;;;0.80;0.40;;;10.60;24.10;;;;;;5072592;28;20133;-62
2021/05/17 02:29:20;;;;;;;2.45;0.70;;;10.60;24.20;;;;;;5077642;28;20051;-62
2021/05/17 02:32:11;;;;;;;2.10;0.60;;;10.60;23.90;;;;;;5073458;28;20052;-62
2021/05/17 02:34:59;;;;;;;1.23;0.47;;;10.60;24.30;;;;;;5075676;28;20033;-62
2021/05/17 02:37:49;;;;;;;0.70;0.45;;;10.60;23.40;;;;;;5075024;28;20131;-63
2021/05/17 02:40:38;;;;;;;1.80;0.60;;;10.60;23.30;;;;;;5071717;28;20049;-62
2021/05/17 02:43:29;;;;;;;0.60;0.40;;;10.60;22.20;;;;;;5066871;28;21325;-62
2021/05/17 02:46:25;;;;;;;1.55;0.45;;;10.60;22.50;;;;;;5062452;28;20055;-62
2021/05/17 02:49:28;;;;;;;1.88;0.60;;;10.60;22.40;;;;;;5075011;28;20044;-62
2021/05/17 02:52:17;;;;;;;2.05;0.50;;;10.60;22.70;;;;;;5072892;28;20055;-62
2021/05/17 02:55:07;;;;;;;1.10;0.50;;;10.50;22.70;;;;;;5071457;28;20036;-62
2021/05/17 02:58:06;;;;;;;0.80;0.43;;;10.50;23.00;;;;;;5073781;28;20522;-62
2021/05/17 03:01:04;;;;;;;1.10;0.50;;;10.50;22.40;;;;;;5057096;28;20052;-62
2021/05/17 03:03:53;;;;;;;1.23;0.40;;;10.50;22.70;;;;;;5080798;28;20040;-63
2021/05/17 03:06:55;;;;;;;1.20;0.60;;;10.50;23.50;;;;;;5079224;28;20037;-62
2021/05/17 03:09:45;;;;;;;2.10;0.52;;;10.60;22.50;;;;;;5068375;28;20068;-62
2021/05/17 03:12:38;;;;;;;1.80;0.70;;;10.60;22.60;;;;;;5069030;28;20044;-63
2021/05/17 03:15:30;;;;;;;4.57;1.02;;;10.50;22.90;;;;;;5077014;28;20095;-63
2021/05/17 03:18:20;;;;;;;3.90;1.10;;;10.50;22.40;;;;;;5075538;28;20051;-62
2021/05/17 03:21:09;;;;;;;2.97;0.65;;;10.50;23.10;;;;;;5073225;28;21680;-62
2021/05/17 03:23:59;;;;;;;0.98;0.60;;;10.50;22.50;;;;;;5074989;28;20041;-63
2021/05/17 03:26:49;;;;;;;0.63;0.30;;;10.50;22.40;;;;;;5075901;28;20275;-62
2021/05/17 03:29:36;;;;;;;1.38;0.40;;;10.60;22.00;;;;;;5078912;28;20531;-63
2021/05/17 03:32:26;;;;;;;1.15;0.50;;;10.50;20.80;;;;;;5079926;28;20055;-63
2021/05/17 03:35:14;;;;;;;2.60;0.80;;;10.50;21.30;;;;;;5077727;28;20088;-63
2021/05/17 03:38:02;;;;;;;1.95;0.50;;;10.50;20.80;;;;;;5078275;28;20079;-62
2021/05/17 03:40:51;;;;;;;5.10;0.73;;;10.50;20.60;;;;;;5076054;28;20105;-63
2021/05/17 03:43:39;;;;;;;1.20;0.65;;;10.50;21.30;;;;;;5081429;28;20051;-62
2021/05/17 03:46:27;;;;;;;1.67;0.88;;;10.50;21.00;;;;;;5076109;28;20450;-62
2021/05/17 03:49:17;;;;;;;1.13;0.50;;;10.50;21.60;;;;;;5079844;28;20423;-62
2021/05/17 03:52:05;;;;;;;1.17;0.35;;;10.50;22.10;;;;;;5079014;28;20123;-63
2021/05/17 03:54:53;;;;;;;2.35;0.80;;;10.50;20.50;;;;;;5076428;28;20126;-63
2021/05/17 03:57:42;;;;;;;1.75;0.30;;;10.60;20.60;;;;;;5072606;28;20122;-62
2021/05/17 04:00:32;;;;;;;2.45;0.40;;;10.50;20.90;;;;;;5080520;28;20051;-62
2021/05/17 04:03:20;;;;;;;1.95;0.60;;;10.50;20.90;;;;;;5079180;28;20127;-63
2021/05/17 04:06:14;;;;;;;2.97;0.45;;;10.50;21.00;;;;;;5078997;28;20045;-63
2021/05/17 04:15:33;;;;;;;1.77;0.57;;;10.70;19.90;;;;;;5041476;28;20524;-62
2021/05/17 04:18:21;;;;;;;0.50;0.30;;;10.70;19.10;;;;;;5042218;28;20060;-63
2021/05/17 04:21:09;;;;;;;1.38;0.57;;;10.70;21.60;;;;;;5072527;28;20056;-62
2021/05/17 04:23:57;;;;;;;1.88;0.50;;;10.70;22.50;;;;;;5080428;28;20052;-62
2021/05/17 04:26:45;;;;;;;0.73;0.30;;;10.70;21.30;;;;;;5076182;28;20040;-62
2021/05/17 04:29:34;;;;;;;1.55;0.60;;;10.70;20.60;;;;;;5075619;28;20044;-63
2021/05/17 04:32:23;;;;;;;0.75;0.30;;;10.80;20.30;;;;;;5068830;28;20052;-63
2021/05/17 04:35:13;;;;;;;1.33;0.60;;;10.80;17.80;;;;;;5080156;28;20424;-62
2021/05/17 04:38:01;;;;;;;1.58;0.45;;;11.00;17.60;;;;;;5075044;28;20103;-62
2021/05/17 04:40:49;;;;;;;0.45;0.40;;;11.00;16.80;;;;;;5075285;28;20044;-63
2021/05/17 04:43:36;;;;;;;4.13;0.60;;;11.10;15.30;;;;;;5078630;28;20051;-63
2021/05/17 04:46:24;;;;;;;1.42;0.73;;;11.20;15.10;;;;;;5080443;28;20446;-63
2021/05/17 04:49:13;;;;;;;1.65;0.35;;;11.10;14.70;;;;;;5074081;28;20139;-62
2021/05/17 04:52:01;;;;;;;2.05;0.40;;;11.20;14.50;;;;;;5079337;28;20053;-62
2021/05/17 04:54:49;;;;;;;1.17;0.38;;;11.20;14.00;;;;;;5081002;28;20123;-62
2021/05/17 04:57:37;;;;;;;0.60;0.30;;;11.20;13.20;;;;;;5071953;28;20059;-63
2021/05/17 05:00:29;;;;;;;0.95;0.40;;;11.60;12.50;;;;;;5076322;28;20051;-62
2021/05/17 05:03:18;;;;;;;0.52;0.40;;;11.70;9.30;;;;;;5076744;28;20044;-62
2021/05/17 05:06:06;;;;;;;0.90;0.30;;;12.60;4.80;;;;;;5075898;28;20079;-62
2021/05/17 05:08:54;;;;;;;1.10;0.30;;;12.00;2.90;;;;;;5077470;28;20123;-62
2021/05/17 05:11:42;;;;;;;1.73;0.60;;;11.70;7.20;;;;;;5074382;28;20080;-61
2021/05/17 05:14:30;;;;;;;0.85;0.40;;;11.60;7.50;;;;;;5078349;28;20461;-62
2021/05/17 05:17:18;;;;;;;5.40;0.60;;;11.80;5.30;;;;;;5077842;28;20129;-62
2021/05/17 05:20:07;;;;;;;1.65;0.40;;;11.50;7.60;;;;;;5074069;28;20040;-63
2021/05/17 05:22:56;;;;;;;2.38;0.57;;;11.50;7.70;;;;;;5077820;28;20040;-63
2021/05/17 05:29:04;;;;;;;1.55;0.35;;;13.10;1.50;;;;;;5079383;28;20055;-62
2021/05/17 05:31:56;;;;;;;2.55;0.50;;;13.10;1.00;;;;;;5079054;28;20079;-63
2021/05/17 05:34:44;;;;;;;2.03;0.40;;;12.60;1.00;;;;;;5071358;28;20512;-63
2021/05/17 05:37:32;;;;;;;1.55;0.40;;;12.20;1.20;;;;;;5073936;28;20407;-62
2021/05/17 05:40:21;;;;;;;1.55;0.73;;;12.20;2.60;;;;;;5075536;28;20063;-62
2021/05/17 05:43:09;;;;;;;1.42;0.60;;;12.00;2.70;;;;;;5074508;28;20602;-62
2021/05/17 05:45:57;;;;;;;1.23;0.52;;;12.00;2.30;;;;;;5077166;28;20562;-62
2021/05/17 05:48:48;;;;;;;0.93;0.30;;;11.90;2.50;;;;;;5069246;28;20080;-61
2021/05/17 05:51:36;;;;;;;1.17;0.55;;;12.20;1.80;;;;;;5074964;28;20136;-62
2021/05/17 05:54:24;;;;;;;0.77;0.30;;;12.30;1.00;;;;;;5081554;28;20501;-62
2021/05/17 05:57:15;;;;;;;0.70;0.28;;;12.10;1.00;;;;;;5075486;28;20040;-63
2021/05/17 06:00:05;;;;;;;4.22;1.00;;;12.10;1.00;;;;;;5073185;28;20571;-62
2021/05/17 06:03:00;;;;;;;0.93;0.57;;;12.10;1.30;;;;;;5077074;28;20068;-62
2021/05/17 06:05:48;;;;;;;2.17;0.50;;;12.10;1.00;;;;;;5077320;28;20602;-63
2021/05/17 06:08:36;;;;;;;8.60;1.00;;;11.80;2.70;;;;;;5040664;28;20126;-62
2021/05/17 06:11:24;;;;;;;1.95;0.68;;;11.60;3.50;;;;;;5073340;28;20093;-63
2021/05/17 06:14:14;;;;;;;0.93;0.52;;;11.60;3.50;;;;;;5077158;28;20506;-63
2021/05/17 06:17:02;;;;;;;1.88;0.40;;;11.80;3.20;;;;;;5078357;28;20530;-62
2021/05/17 06:19:53;;;;;;;3.50;0.63;;;11.60;3.90;;;;;;5076816;28;20084;-62
2021/05/17 06:22:42;;;;;;;1.05;0.43;;;11.70;5.10;;;;;;5076072;28;20109;-61
2021/05/17 06:25:31;;;;;;;1.67;0.50;;;11.80;5.00;;;;;;5076005;28;20036;-62
2021/05/17 06:28:20;;;;;;;1.58;0.60;;;11.90;5.40;;;;;;5072902;28;20097;-61
2021/05/17 06:31:12;;;;;;;2.95;0.80;;;12.00;4.00;;;;;;5076269;28;20134;-62
2021/05/17 06:34:00;;;;;;;1.80;0.50;;;12.00;3.50;;;;;;5059161;28;20571;-62
2021/05/17 06:36:48;;;;;;;1.40;0.40;;;12.20;4.20;;;;;;5075920;28;20048;-63
2021/05/17 06:39:36;;;;;;;2.35;0.50;;;12.20;4.70;;;;;;5077251;28;20122;-61
2021/05/17 06:42:25;;;;;;;3.05;0.65;;;12.10;3.80;;;;;;5075207;28;20118;-62
2021/05/17 06:45:14;;;;;;;3.70;0.47;;;12.00;3.80;;;;;;5075024;28;20086;-63
2021/05/17 06:48:03;;;;;;;1.83;0.55;;;12.10;3.70;;;;;;5069191;28;20044;-63
2021/05/17 06:50:53;;;;;;;4.20;0.80;;;12.10;3.80;;;;;;5070009;28;20048;-63
2021/05/17 06:53:41;;;;;;;1.15;0.47;;;12.00;2.50;;;;;;5075301;28;20129;-63
2021/05/17 06:56:38;;;;;;;3.78;1.88;;;12.70;2.10;;;;;;5076464;28;20408;-62
2021/05/17 06:59:27;;;;;;;0.85;0.45;;;12.60;1.00;;;;;;5075418;28;20047;-62
2021/05/17 07:02:18;;;;;;;3.78;0.60;;;12.90;1.00;;;;;;5083845;28;20056;-63
2021/05/17 07:05:09;;;;;;;2.35;0.60;;;13.00;1.00;;;;;;5067787;28;20097;-63
2021/05/17 07:14:06;;;;;;;1.02;0.30;;;12.70;1.00;;;;;;5082911;28;20113;-63
2021/05/17 07:16:53;;;;;;;1.77;0.50;;;12.60;1.00;;;;;;5078206;28;20076;-62
2021/05/17 07:19:44;;;;;;;3.97;0.43;;;12.60;1.00;;;;;;5078730;28;20157;-62
2021/05/17 07:25:39;;;;;;;1.90;0.45;;;12.90;1.00;;;;;;5083863;28;20040;-62
2021/05/17 07:28:27;;;;;;;3.28;0.30;;;12.80;1.00;;;;;;5081059;28;20051;-62
2021/05/17 07:31:15;;;;;;;3.00;0.50;;;13.10;1.00;;;;;;5084910;28;20411;-62
2021/05/17 07:34:04;;;;;;;1.45;0.50;;;13.40;1.00;;;;;;5054611;28;20127;-62
2021/05/17 07:36:52;;;;;;;2.65;0.70;;;13.50;1.00;;;;;;5070003;28;20595;-62
2021/05/17 07:39:41;;;;;;;1.73;0.40;;;12.90;1.00;;;;;;5082725;28;20048;-62
2021/05/17 07:42:29;;;;;;;1.65;0.63;;;13.20;1.00;;;;;;5081684;28;20066;-62
2021/05/17 07:45:17;;;;;;;2.10;0.40;;;13.00;1.00;;;;;;5087334;28;20048;-63
2021/05/17 07:48:06;;;;;;;1.45;0.40;;;13.30;1.00;;;;;;5072671;28;20476;-63
2021/05/17 07:50:53;;;;;;;1.52;0.43;;;13.20;1.00;;;;;;5077808;28;20790;-64
2021/05/17 07:53:41;;;;;;;2.85;0.68;;;13.40;1.00;;;;;;5081510;28;20044;-63
2021/05/17 07:56:31;;;;;;;1.60;0.40;;;13.70;1.00;;;;;;5080057;28;20044;-61
2021/05/17 07:59:20;;;;;;;2.53;0.82;;;13.90;1.00;;;;;;5082113;28;20045;-62
2021/05/17 08:02:08;;;;;;;2.92;0.73;;;13.60;1.00;;;;;;5082086;28;20111;-63
2021/05/17 08:04:56;;;;;;;1.85;0.57;;;13.40;1.00;;;;;;5083022;28;20049;-63
2021/05/17 08:07:44;;;;;;;2.95;0.60;;;13.50;1.00;;;;;;5079693;28;20051;-63
2021/05/17 08:10:34;;;;;;;5.50;0.75;;;13.30;1.00;;;;;;5077494;28;20452;-63
2021/05/17 08:13:23;;;;;;;2.15;0.95;;;13.40;1.00;;;;;;5080924;28;20053;-63
2021/05/17 08:16:32;;;;;;;2.20;0.63;;;13.00;1.00;;;;;;5077274;28;20526;-62
2021/05/17 08:19:20;;;;;;;2.08;0.47;;;13.30;1.00;;;;;;5080486;28;20182;-62
2021/05/17 08:22:08;;;;;;;4.25;0.95;;;13.30;1.00;;;;;;5074664;28;20048;-62
2021/05/17 08:24:56;;;;;;;3.20;0.75;;;13.40;1.00;;;;;;5065951;28;20043;-63
2021/05/17 08:27:44;;;;;;;2.10;0.40;;;14.50;1.00;;;;;;5077346;28;20133;-63
2021/05/17 08:30:40;;;;;;;2.85;0.80;;;14.50;1.00;;;;;;5076890;28;20193;-63
2021/05/17 08:33:32;;;;;;;4.45;0.52;;;14.10;1.00;;;;;;5080537;28;20123;-61
2021/05/17 08:36:20;;;;;;;2.25;0.65;;;13.90;1.00;;;;;;5077476;28;20109;-62
2021/05/17 08:39:09;;;;;;;1.10;0.40;;;14.40;1.00;;;;;;5080079;28;20056;-62
2021/05/17 08:41:58;;;;;;;3.13;0.73;;;14.80;1.00;;;;;;5077433;28;20052;-62
2021/05/17 08:44:46;;;;;;;1.27;0.70;;;15.40;1.00;;;;;;5075809;28;20064;-62
2021/05/17 08:47:35;;;;;;;2.65;0.47;;;14.90;1.00;;;;;;5073815;28;20235;-63
2021/05/17 08:50:24;;;;;;;1.73;0.68;;;15.10;1.00;;;;;;5077193;28;20507;-62
2021/05/17 08:53:12;;;;;;;3.47;0.73;;;14.70;1.00;;;;;;5078726;28;20147;-63
2021/05/17 08:56:04;;;;;;;4.68;0.73;;;15.50;1.00;;;;;;5077972;28;20048;-61
2021/05/17 08:58:55;;;;;;;2.78;0.90;;;15.20;1.00;;;;;;5080104;28;20495;-62
2021/05/17 09:01:43;;;;;;;2.47;0.70;;;15.20;1.00;;;;;;5074461;28;20097;-63
2021/05/17 09:04:32;;;;;;;1.52;0.55;;;15.10;1.00;;;;;;5079270;28;20535;-63
2021/05/17 09:07:33;;;;;;;2.13;0.40;;;14.30;1.00;;;;;;5073632;28;20509;-63
2021/05/17 09:10:24;;;;;;;4.15;1.10;;;14.10;1.00;;;;;;5077389;28;20227;-63
2021/05/17 09:13:14;;;;;;;3.53;0.60;;;13.80;1.00;;;;;;5063025;28;20074;-62
2021/05/17 09:16:03;;;;;;;4.47;0.68;;;14.00;1.00;;;;;;5076159;28;20155;-62
2021/05/17 09:18:52;;;;;;;6.70;0.80;;;13.90;1.00;;;;;;5078449;28;20048;-62
2021/05/17 09:22:09;;;;;;;1.27;0.68;;;13.80;1.00;;;;;;5060800;28;20109;-62
2021/05/17 09:24:58;;;;;;;3.17;0.80;;;13.80;1.00;;;;;;5063787;28;20163;-63
2021/05/17 09:27:59;;;;;;;1.23;0.40;;;13.70;1.00;;;;;;5078686;28;20423;-63
2021/05/17 09:30:49;;;;;;;1.27;0.40;;;13.90;1.00;;;;;;5066579;28;20416;-63
2021/05/17 09:33:43;;;;;;;3.97;0.70;;;14.20;1.00;;;;;;5082131;28;20052;-62
2021/05/17 09:36:37;;;;;;;1.30;0.50;;;15.10;1.00;;;;;;5075817;28;20044;-63
2021/05/17 09:39:26;;;;;;;2.58;0.50;;;15.50;1.00;;;;;;5079117;28;20048;-62
2021/05/17 09:42:14;;;;;;;0.95;0.40;;;15.80;1.00;;;;;;5077047;28;20052;-63
2021/05/17 09:45:11;;;;;;;4.03;0.60;;;15.60;1.00;;;;;;5078253;28;20511;-63
2021/05/17 09:48:00;;;;;;;2.97;0.50;;;15.30;1.00;;;;;;5071711;28;20119;-64
2021/05/17 09:51:00;;;;;;;0.88;0.45;;;15.40;1.00;;;;;;5073061;28;20427;-63
2021/05/17 09:53:49;;;;;;;3.22;0.55;;;15.20;1.00;;;;;;5063322;28;20118;-64
2021/05/17 09:56:38;;;;;;;2.95;0.90;;;14.60;1.00;;;;;;5074932;28;20043;-62
2021/05/17 09:59:26;;;;;;;2.08;0.63;;;14.80;1.00;;;;;;5076040;28;20048;-62
2021/05/17 10:02:39;;;;;;;2.13;0.40;;;14.80;1.00;;;;;;5076402;28;20063;-62
2021/05/17 10:05:30;;;;;;;0.55;0.30;;;14.80;1.00;;;;;;5080039;28;20565;-62
2021/05/17 10:08:22;;;;;;;0.50;0.20;;;14.70;1.00;;;;;;5074630;28;20055;-64
2021/05/17 10:11:10;;;;;;;2.28;0.50;;;14.70;1.00;;;;;;5077043;28;20405;-63
2021/05/17 10:13:59;;;;;;;1.75;0.50;;;14.70;1.00;;;;;;5078175;28;20056;-63
2021/05/17 10:16:49;;;;;;;4.05;0.75;;;14.40;1.00;;;;;;5072244;28;20045;-62
2021/05/17 10:19:38;;;;;;;1.40;0.30;;;14.70;1.00;;;;;;5080654;28;20048;-62
2021/05/17 10:22:28;;;;;;;0.40;0.30;;;15.20;1.00;;;;;;5075951;28;20123;-62
2021/05/17 10:25:21;;;;;;;0.45;0.20;;;15.00;1.00;;;;;;5072958;28;20045;-63
2021/05/17 10:28:13;;;;;;;1.63;0.40;;;15.50;1.00;;;;;;5071546;28;20055;-64
2021/05/17 10:31:10;;;;;;;1.25;0.22;;;15.50;1.00;;;;;;5078800;28;20091;-62
2021/05/17 10:34:00;;;;;;;1.00;0.35;;;15.80;1.00;;;;;;5079765;28;20197;-63
2021/05/17 10:36:52;;;;;;;1.73;0.20;;;16.10;1.00;;;;;;5058571;28;20131;-63
2021/05/17 10:39:44;;;;;;;1.38;0.15;;;16.20;1.00;;;;;;5071956;28;20105;-63
2021/05/17 10:42:45;;;;;;;1.13;0.38;;;15.80;1.00;;;;;;5074799;28;20048;-62
2021/05/17 10:48:41;;;;;;;2.65;0.40;;;15.60;1.00;;;;;;5077234;28;20512;-63
2021/05/17 10:51:31;;;;;;;0.60;0.32;;;15.50;1.00;;;;;;5074317;28;20503;-63
2021/05/17 10:54:24;;;;;;;1.88;0.60;;;15.50;1.00;;;;;;5079065;28;20123;-62
2021/05/17 10:57:20;;;;;;;0.77;0.43;;;15.60;1.00;;;;;;5073483;28;20048;-63
2021/05/17 11:00:23;;;;;;;2.95;1.00;;;15.50;1.00;;;;;;5076839;28;20056;-62
2021/05/17 11:03:14;;;;;;;2.67;0.52;;;15.30;1.00;;;;;;5076120;28;20041;-62
2021/05/17 11:06:04;;;;;;;5.88;0.80;;;14.80;1.00;;;;;;5077242;28;20036;-62
2021/05/17 11:08:52;;;;;;;2.25;0.80;;;13.40;1.00;;;;;;5064050;28;20432;-62
2021/05/17 11:11:40;;;;;;;3.08;1.02;;;12.10;1.00;;;;;;5073499;28;20090;-62
2021/05/17 11:14:30;;;;;;;6.40;1.27;;;11.50;15.20;;;;;;5075676;28;20044;-62
2021/05/17 11:17:18;;;;;;;4.53;1.33;;;10.70;31.70;;;;;;5068460;28;20052;-62
2021/05/17 11:20:44;;;;;;;3.92;1.00;;;10.50;40.80;;;;;;5078818;28;20047;-62
2021/05/17 11:23:49;;;;;;;1.75;0.68;;;10.50;30.10;;;;;;5068355;28;20573;-63
2021/05/17 11:26:54;;;;;;;2.22;0.57;;;10.70;34.60;;;;;;5069032;28;20041;-62
2021/05/17 11:29:42;;;;;;;2.95;1.20;;;10.90;33.50;;;;;;5076504;28;20052;-63
2021/05/17 11:32:39;;;;;;;3.15;0.90;;;11.20;38.10;;;;;;5071075;28;20400;-63
2021/05/17 11:35:28;;;;;;;3.95;0.80;;;11.20;38.30;;;;;;5078374;28;20177;-63
2021/05/17 11:38:16;;;;;;;3.92;1.00;;;11.30;37.00;;;;;;5065844;28;20057;-63
2021/05/17 11:41:20;;;;;;;2.65;0.70;;;11.60;37.40;;;;;;5069009;28;20080;-62
2021/05/17 11:44:09;;;;;;;3.78;1.20;;;11.70;34.30;;;;;;5074716;28;20044;-62
2021/05/17 11:46:59;;;;;;;3.22;1.20;;;12.00;37.90;;;;;;5076516;28;20051;-62
2021/05/17 11:49:49;;;;;;;2.83;1.02;;;11.90;36.80;;;;;;5078938;28;20052;-63
2021/05/17 11:52:37;;;;;;;3.03;1.20;;;12.20;35.00;;;;;;5081499;28;20063;-63
2021/05/17 11:55:27;;;;;;;5.85;1.27;;;12.90;31.90;;;;;;5077429;28;20068;-63
2021/05/17 11:58:23;;;;;;;3.60;1.25;;;13.10;31.20;;;;;;5075461;28;20051;-63
2021/05/17 12:01:16;;;;;;;3.75;1.17;;;13.30;30.10;;;;;;5076291;28;20051;-63
2021/05/17 12:04:28;;;;;;;6.57;1.10;;;13.50;31.60;;;;;;5083171;28;20531;-63
2021/05/17 12:07:17;;;;;;;5.63;1.02;;;14.00;24.50;;;;;;5076144;28;20044;-63
2021/05/17 12:10:06;;;;;;;2.22;0.90;;;13.60;19.50;;;;;;5073992;28;20499;-63
2021/05/17 12:12:54;;;;;;;2.75;0.70;;;14.00;21.30;;;;;;5077840;28;20416;-63
2021/05/17 12:15:43;;;;;;;1.88;0.70;;;14.20;16.90;;;;;;5080198;28;20198;-63
2021/05/17 12:18:36;;;;;;;2.03;0.60;;;14.40;9.70;;;;;;5081386;28;20047;-62
2021/05/17 12:21:30;;;;;;;2.10;0.60;;;14.90;10.20;;;;;;5075103;28;20115;-62
2021/05/17 12:24:25;;;;;;;1.23;0.55;;;14.90;11.60;;;;;;5080720;28;20048;-63
2021/05/17 12:27:14;;;;;;;0.40;0.30;;;15.10;6.40;;;;;;5067941;28;20131;-63
2021/05/17 12:30:07;;;;;;;1.63;0.40;;;14.90;2.30;;;;;;5064635;28;20040;-64
2021/05/17 12:32:57;;;;;;;0.70;0.28;;;14.90;1.00;;;;;;5074074;28;20516;-64
2021/05/17 12:35:52;;;;;;;0.73;0.30;;;15.10;1.00;;;;;;5079006;28;20119;-63
2021/05/17 12:38:44;;;;;;;0.55;0.20;;;15.00;1.00;;;;;;5073903;28;20036;-63
2021/05/17 12:41:34;;;;;;;1.48;0.22;;;15.50;1.00;;;;;;5061432;28;20514;-64
2021/05/17 12:44:35;;;;;;;1.13;0.28;;;15.90;1.00;;;;;;5075651;28;20394;-65
2021/05/17 12:47:23;;;;;;;2.80;0.43;;;16.30;1.00;;;;;;5077255;28;20083;-64
2021/05/17 12:50:19;;;;;;;1.08;0.30;;;15.80;1.00;;;;;;5079489;28;20061;-63
2021/05/17 12:53:08;;;;;;;2.08;0.30;;;15.50;1.00;;;;;;5073764;28;20079;-63
2021/05/17 12:55:58;;;;;;;0.85;0.20;;;15.80;1.00;;;;;;5080840;28;20515;-64
2021/05/17 12:58:51;;;;;;;0.47;0.20;;;15.40;1.00;;;;;;5074252;28;20131;-64
2021/05/17 13:01:40;;;;;;;0.47;0.30;;;15.30;1.00;;;;;;5076936;28;20047;-63
2021/05/17 13:04:29;;;;;;;1.50;0.35;;;15.50;1.00;;;;;;5074548;28;20044;-64
2021/05/17 13:07:17;;;;;;;1.42;0.40;;;15.50;1.00;;;;;;5078170;28;20512;-64
2021/05/17 13:10:06;;;;;;;0.95;0.17;;;15.50;1.00;;;;;;5082364;28;20052;-64
2021/05/17 13:12:54;;;;;;;0.70;0.30;;;15.40;1.00;;;;;;5079004;28;20060;-64
2021/05/17 13:15:58;;;;;;;1.23;0.32;;;15.60;1.00;;;;;;5079481;28;20095;-63
2021/05/17 13:22:50;;;;;;;2.33;0.38;;;15.10;1.00;;;;;;5067676;28;20059;-64
2021/05/17 13:31:50;;;;;;;2.20;0.50;;;13.80;1.00;;;;;;5078935;28;20404;-64
2021/05/17 13:34:38;;;;;;;3.42;0.80;;;13.30;9.20;;;;;;5074961;28;20080;-64
2021/05/17 13:37:26;;;;;;;2.70;0.82;;;13.20;10.70;;;;;;5076788;28;20036;-64
2021/05/17 13:40:16;;;;;;;3.20;1.25;;;12.80;15.70;;;;;;5078714;28;20105;-64
2021/05/17 13:43:04;;;;;;;5.72;1.08;;;13.00;16.60;;;;;;5077231;28;20044;-64
2021/05/17 13:45:52;;;;;;;1.30;0.80;;;13.10;17.80;;;;;;5075968;28;20547;-64
2021/05/17 13:48:48;;;;;;;2.00;1.00;;;13.00;13.40;;;;;;5074156;28;20048;-65
2021/05/17 13:51:36;;;;;;;6.43;1.40;;;13.00;12.10;;;;;;5075087;28;20047;-64
2021/05/17 13:54:24;;;;;;;2.05;0.63;;;13.00;13.50;;;;;;5080374;28;20109;-64
2021/05/17 13:57:14;;;;;;;2.13;0.35;;;13.20;12.90;;;;;;5072540;28;20040;-64
2021/05/17 14:00:05;;;;;;;1.65;0.80;;;13.30;11.10;;;;;;5074156;28;20109;-63
2021/05/17 14:02:59;;;;;;;1.25;0.52;;;14.10;10.70;;;;;;5079070;28;20048;-64
2021/05/17 14:05:47;;;;;;;0.73;0.50;;;14.30;3.20;;;;;;5074323;28;20498;-64
2021/05/17 14:08:35;;;;;;;2.90;0.70;;;14.70;7.50;;;;;;5076333;28;20658;-64
2021/05/17 14:11:23;;;;;;;1.10;0.63;;;14.60;2.50;;;;;;5074130;28;20067;-66
2021/05/17 14:14:12;;;;;;;0.50;0.20;;;15.00;1.00;;;;;;5076628;28;20199;-63
2021/05/17 14:17:00;;;;;;;1.10;0.47;;;14.30;1.00;;;;;;5070981;28;20131;-62
2021/05/17 14:19:49;;;;;;;2.38;0.40;;;14.50;1.00;;;;;;5072936;28;20059;-63
2021/05/17 14:22:39;;;;;;;1.40;0.32;;;14.30;1.00;;;;;;5052892;28;20608;-63
2021/05/17 14:25:27;;;;;;;2.50;0.47;;;14.30;1.00;;;;;;5074445;28;20142;-62
2021/05/17 14:28:16;;;;;;;1.17;0.20;;;14.10;1.00;;;;;;5057366;28;20136;-63
2021/05/17 14:31:05;;;;;;;0.75;0.30;;;14.00;1.00;;;;;;5068132;28;20059;-63
2021/05/17 14:33:54;;;;;;;0.63;0.50;;;14.10;1.00;;;;;;5076496;28;20134;-63
2021/05/17 14:36:43;;;;;;;0.90;0.40;;;14.00;1.00;;;;;;5074125;28;20054;-62
2021/05/17 14:39:32;;;;;;;2.15;0.40;;;13.90;1.00;;;;;;5073109;28;20496;-66
2021/05/17 14:42:20;;;;;;;0.60;0.45;;;13.70;1.00;;;;;;5067633;28;20083;-63
2021/05/17 14:45:10;;;;;;;0.93;0.43;;;13.50;1.20;;;;;;5061909;28;20955;-64
2021/05/17 14:47:59;;;;;;;2.10;0.40;;;13.40;3.90;;;;;;5075158;28;20100;-65
2021/05/17 14:50:48;;;;;;;0.77;0.28;;;13.30;3.10;;;;;;5075945;28;20052;-64
2021/05/17 14:53:36;;;;;;;2.85;0.30;;;13.20;2.90;;;;;;5075252;28;20585;-64
2021/05/17 14:56:25;;;;;;;1.02;0.35;;;13.20;4.80;;;;;;5058726;28;20069;-64
2021/05/17 14:59:13;;;;;;;1.15;0.40;;;13.20;1.70;;;;;;5070057;28;20086;-65
2021/05/17 15:02:02;;;;;;;1.08;0.47;;;13.40;1.00;;;;;;5070396;28;20048;-64
2021/05/17 15:04:50;;;;;;;1.08;0.30;;;13.50;1.40;;;;;;5073132;28;20044;-64
2021/05/17 15:07:39;;;;;;;0.95;0.30;;;13.60;1.00;;;;;;5071637;28;20417;-63
2021/05/17 15:10:28;;;;;;;0.75;0.25;;;13.50;1.00;;;;;;5075557;28;20058;-64
2021/05/17 15:13:16;;;;;;;2.05;0.40;;;13.30;1.00;;;;;;5070710;28;20044;-63
2021/05/17 15:16:04;;;;;;;1.23;0.40;;;13.10;1.00;;;;;;5077606;28;20121;-63
2021/05/17 15:18:53;;;;;;;2.78;0.50;;;12.90;4.80;;;;;;5078918;28;20055;-63
2021/05/17 15:21:42;;;;;;;1.52;0.52;;;12.90;5.70;;;;;;5059836;28;20500;-63
2021/05/17 15:24:32;;;;;;;1.30;0.47;;;12.80;9.90;;;;;;5082344;28;20047;-62
2021/05/17 15:27:20;;;;;;;2.15;0.20;;;12.80;8.40;;;;;;5078919;28;20056;-62